Reno, Ohio
Current Conditions -  °F | °C
As of 3:53 PM on Monday 22 Dec 2014 (Local Time) from KPKB Reporting Station
Clear Clear  
Wind Chill: 54°   Ceiling: Unl
Heat Index: 54°   Visibility: 10mi
Dew Point: 36°   Wind: 7mph
Humidity: 51%   Direction: 130°SE
Pressure: 29.96"   Gusts: NA
Location:  39.37°N, 81.4°W
Report Text: KPKB 222053Z 13006KT 10SM CLR 12/02 A2996 RMK AO2 SLP151 T01220022 55017
Loading
Personal Weather Stations






























Interactive Weather Map New forecast layout! Learn more

10-Day Weather Forecast

Advertisements
Track Severe Weather on mobile